createdAt,value
2023-05-19T00:01:36.482Z,2.25
2023-05-19T00:04:03.946Z,2.20
2023-05-19T00:06:32.796Z,1.80
2023-05-19T00:09:00.880Z,1.80
2023-05-19T00:11:28.795Z,2.38
2023-05-19T00:13:56.496Z,2.60
2023-05-19T00:16:24.104Z,2.17
2023-05-19T00:18:57.583Z,2.10
2023-05-19T00:21:24.220Z,2.35
2023-05-19T00:23:50.921Z,1.90
2023-05-19T00:26:17.923Z,2.03
2023-05-19T00:28:56.081Z,2.10
2023-05-19T00:31:25.040Z,1.55
2023-05-19T00:33:53.185Z,2.83
2023-05-19T00:36:19.930Z,1.70
2023-05-19T00:38:49.383Z,2.67
2023-05-19T00:41:16.082Z,2.03
2023-05-19T00:43:42.841Z,2.03
2023-05-19T00:46:09.590Z,1.92
2023-05-19T00:48:36.230Z,1.88
2023-05-19T00:51:05.266Z,1.75
2023-05-19T00:53:36.012Z,2.55
2023-05-19T00:56:03.436Z,2.15
2023-05-19T00:58:33.642Z,1.77
2023-05-19T01:03:27.867Z,2.17
2023-05-19T01:05:54.608Z,3.38
2023-05-19T01:08:23.037Z,2.03
2023-05-19T01:10:52.514Z,2.67
2023-05-19T01:13:19.267Z,2.00
2023-05-19T01:16:01.514Z,2.05
2023-05-19T01:18:40.995Z,2.58
2023-05-19T01:21:26.094Z,2.13
2023-05-19T01:24:04.607Z,2.58
2023-05-19T01:27:09.507Z,2.33
2023-05-19T01:29:45.175Z,2.15
2023-05-19T01:32:21.010Z,2.53
2023-05-19T01:34:50.751Z,2.80
2023-05-19T01:37:18.039Z,2.80
2023-05-19T01:39:46.546Z,2.10
2023-05-19T01:42:15.085Z,2.72
2023-05-19T01:44:44.577Z,2.15
2023-05-19T01:47:12.962Z,2.13
2023-05-19T01:49:39.621Z,2.25
2023-05-19T01:52:06.467Z,2.30
2023-05-19T01:54:33.517Z,2.00
2023-05-19T01:57:06.163Z,2.15
2023-05-19T01:59:42.121Z,4.32
2023-05-19T02:02:21.247Z,2.42
2023-05-19T02:04:55.683Z,2.58
2023-05-19T02:07:31.027Z,2.78
2023-05-19T02:10:04.631Z,2.50
2023-05-19T02:12:34.346Z,2.25
2023-05-19T02:15:10.180Z,2.88
2023-05-19T02:17:44.078Z,2.90
2023-05-19T02:20:11.642Z,2.17
2023-05-19T02:22:38.204Z,2.72
2023-05-19T02:25:05.451Z,2.50
2023-05-19T02:27:33.202Z,2.75
2023-05-19T02:30:00.005Z,2.72
2023-05-19T02:32:26.524Z,2.45
2023-05-19T02:34:54.856Z,2.17
2023-05-19T02:39:51.337Z,2.67
2023-05-19T02:42:17.963Z,2.17
2023-05-19T02:44:47.345Z,3.15
2023-05-19T02:47:14.084Z,2.03
2023-05-19T02:49:41.402Z,2.72
2023-05-19T02:52:09.637Z,2.40
2023-05-19T02:54:36.544Z,2.55
2023-05-19T02:57:11.342Z,2.55
2023-05-19T02:59:41.799Z,2.45
2023-05-19T03:02:10.751Z,2.92
2023-05-19T03:04:37.473Z,3.50
2023-05-19T03:07:04.642Z,2.63
2023-05-19T03:09:32.831Z,2.83
2023-05-19T03:11:59.882Z,3.13
2023-05-19T03:14:33.977Z,2.45
2023-05-19T03:17:06.276Z,2.40
2023-05-19T03:19:34.919Z,3.30
2023-05-19T03:22:02.185Z,2.10
2023-05-19T03:24:32.200Z,2.38
2023-05-19T03:27:06.482Z,3.17
2023-05-19T03:29:33.376Z,3.15
2023-05-19T03:32:00.380Z,2.30
2023-05-19T03:34:29.225Z,3.03
2023-05-19T03:36:58.589Z,2.78
2023-05-19T03:39:25.579Z,2.72
2023-05-19T03:41:56.976Z,2.92
2023-05-19T03:44:28.059Z,2.50
2023-05-19T03:46:59.083Z,2.85
2023-05-19T03:49:46.886Z,2.88
2023-05-19T03:52:40.491Z,3.08
2023-05-19T03:55:21.941Z,3.45
2023-05-19T03:57:48.836Z,2.67
2023-05-19T04:00:19.626Z,3.08
2023-05-19T04:02:46.783Z,3.05
2023-05-19T04:05:16.181Z,2.83
2023-05-19T04:07:46.085Z,2.95
2023-05-19T04:10:14.927Z,3.00
2023-05-19T04:12:59.570Z,2.65
2023-05-19T04:15:30.444Z,2.58
2023-05-19T04:17:58.587Z,3.25
2023-05-19T04:20:34.345Z,3.30
2023-05-19T04:23:05.683Z,2.78
2023-05-19T04:25:34.521Z,2.38
2023-05-19T04:28:09.671Z,2.83
2023-05-19T04:30:43.515Z,3.55
2023-05-19T04:33:13.008Z,2.72
2023-05-19T04:35:53.664Z,3.10
2023-05-19T04:38:26.553Z,2.97
2023-05-19T04:40:58.343Z,2.83
2023-05-19T04:43:26.564Z,2.85
2023-05-19T04:45:57.622Z,3.45
2023-05-19T04:48:27.811Z,3.00
2023-05-19T04:51:01.815Z,3.25
2023-05-19T04:53:29.010Z,2.72
2023-05-19T04:55:58.884Z,2.83
2023-05-19T04:58:29.074Z,2.67
2023-05-19T05:03:26.876Z,3.28
2023-05-19T05:05:55.585Z,3.47
2023-05-19T05:08:23.852Z,2.83
2023-05-19T05:10:52.409Z,3.67
2023-05-19T05:13:25.699Z,2.45
2023-05-19T05:15:53.884Z,2.47
2023-05-19T05:18:24.541Z,3.78
2023-05-19T05:20:54.405Z,2.38
2023-05-19T05:23:21.823Z,3.15
2023-05-19T05:25:49.946Z,3.05
2023-05-19T05:28:16.992Z,3.17
2023-05-19T05:30:44.646Z,3.25
2023-05-19T05:33:21.965Z,2.58
2023-05-19T05:35:50.466Z,3.17
2023-05-19T05:38:29.109Z,2.95
2023-05-19T05:40:59.566Z,3.35
2023-05-19T05:43:33.509Z,2.45
2023-05-19T05:46:06.766Z,3.72
2023-05-19T05:48:36.224Z,3.00
2023-05-19T05:51:12.381Z,2.63
2023-05-19T05:54:01.028Z,2.88
2023-05-19T05:56:37.310Z,2.95
2023-05-19T05:59:11.654Z,3.45
2023-05-19T06:01:43.842Z,2.80
2023-05-19T06:04:15.521Z,2.75
2023-05-19T06:06:57.217Z,2.55
2023-05-19T06:09:33.806Z,2.80
2023-05-19T06:12:01.727Z,3.53
2023-05-19T06:14:33.395Z,3.00
2023-05-19T06:17:21.888Z,2.83
2023-05-19T06:19:50.542Z,3.47
2023-05-19T06:22:18.716Z,2.80
2023-05-19T06:24:45.543Z,2.42
2023-05-19T06:27:15.318Z,3.45
2023-05-19T06:29:46.538Z,3.10
2023-05-19T06:32:13.685Z,3.05
2023-05-19T06:34:43.835Z,2.55
2023-05-19T06:37:10.575Z,2.80
2023-05-19T06:39:42.034Z,3.10
2023-05-19T06:42:08.764Z,2.50
2023-05-19T06:44:57.932Z,3.53
2023-05-19T06:47:26.923Z,2.60
2023-05-19T06:49:53.732Z,3.05
2023-05-19T06:52:25.001Z,2.65
2023-05-19T06:54:54.053Z,2.63
2023-05-19T06:57:22.982Z,2.47
2023-05-19T06:59:57.157Z,3.17
2023-05-19T07:02:24.375Z,2.47
2023-05-19T07:04:51.282Z,2.78
2023-05-19T07:07:20.384Z,2.65
2023-05-19T07:09:47.334Z,3.00
2023-05-19T07:12:17.213Z,3.17
2023-05-19T07:17:11.256Z,2.72
2023-05-19T07:19:42.261Z,3.33
2023-05-19T07:22:09.114Z,2.72
2023-05-19T07:24:40.537Z,2.83
2023-05-19T07:27:10.419Z,3.22
2023-05-19T07:32:08.120Z,2.28
2023-05-19T07:34:39.247Z,2.97
2023-05-19T07:37:06.123Z,2.72
2023-05-19T07:39:35.070Z,2.63
2023-05-19T07:42:08.915Z,2.45
2023-05-19T07:44:39.585Z,2.15
2023-05-19T07:47:09.121Z,2.83
2023-05-19T07:49:35.866Z,2.08
2023-05-19T07:52:04.919Z,2.72
2023-05-19T07:54:37.312Z,3.35
2023-05-19T07:57:10.452Z,2.30
2023-05-19T07:59:38.770Z,2.30
2023-05-19T08:02:07.282Z,2.15
2023-05-19T08:04:41.365Z,1.60
2023-05-19T08:07:08.217Z,2.13
2023-05-19T08:09:34.924Z,2.42
2023-05-19T08:12:04.534Z,1.88
2023-05-19T08:14:36.402Z,1.67
2023-05-19T08:17:04.463Z,2.60
2023-05-19T08:19:37.454Z,2.28
2023-05-19T08:22:04.617Z,1.80
2023-05-19T08:24:31.236Z,2.60
2023-05-19T08:27:00.895Z,2.95
2023-05-19T08:29:31.183Z,2.53
2023-05-19T08:31:59.363Z,2.53
2023-05-19T08:34:26.085Z,2.53
2023-05-19T08:36:58.461Z,2.70
2023-05-19T08:39:25.419Z,2.78
2023-05-19T08:42:02.613Z,2.40
2023-05-19T08:44:29.409Z,3.60
2023-05-19T08:47:52.048Z,2.58
2023-05-19T08:50:52.224Z,2.53
2023-05-19T08:56:14.043Z,2.08
2023-05-19T08:58:49.766Z,2.22
2023-05-19T09:01:23.554Z,3.00
2023-05-19T09:03:53.152Z,3.05
2023-05-19T09:06:22.803Z,2.58
2023-05-19T09:08:50.881Z,1.90
2023-05-19T09:11:17.829Z,2.05
2023-05-19T09:13:51.889Z,2.10
2023-05-19T09:16:21.128Z,1.73
2023-05-19T09:18:57.351Z,1.90
2023-05-19T09:21:34.395Z,2.55
2023-05-19T09:24:07.169Z,2.33
2023-05-19T09:26:37.683Z,2.13
2023-05-19T09:29:12.501Z,2.20
2023-05-19T09:31:49.674Z,2.45
2023-05-19T09:34:16.680Z,2.70
2023-05-19T09:36:47.646Z,2.20
2023-05-19T09:39:16.713Z,1.92
2023-05-19T09:41:44.121Z,1.77
2023-05-19T09:44:13.773Z,1.92
2023-05-19T09:46:48.294Z,1.58
2023-05-19T09:49:19.496Z,1.45
2023-05-19T09:51:48.808Z,1.98
2023-05-19T09:54:20.397Z,1.65
2023-05-19T09:56:51.848Z,1.80
2023-05-19T09:59:19.947Z,1.48
2023-05-19T10:01:47.285Z,1.38
2023-05-19T10:04:16.095Z,1.30
2023-05-19T10:06:43.928Z,1.67
2023-05-19T10:09:16.097Z,1.83
2023-05-19T10:11:44.233Z,2.05
2023-05-19T10:14:11.079Z,1.45
2023-05-19T10:16:44.459Z,1.88
2023-05-19T10:19:22.770Z,1.45
2023-05-19T10:21:51.287Z,1.88
2023-05-19T10:24:20.994Z,2.10
2023-05-19T10:29:24.233Z,1.25
2023-05-19T10:31:55.331Z,1.42
2023-05-19T10:34:39.652Z,2.28
2023-05-19T10:37:17.193Z,2.20
2023-05-19T10:39:46.521Z,1.70
2023-05-19T10:42:18.877Z,1.75
2023-05-19T10:44:58.733Z,2.42
2023-05-19T10:47:48.133Z,1.88
2023-05-19T10:50:19.690Z,1.63
2023-05-19T10:52:59.660Z,2.55
2023-05-19T10:55:50.260Z,1.95
2023-05-19T10:58:49.586Z,1.70
2023-05-19T11:01:19.232Z,2.60
2023-05-19T11:06:21.666Z,1.40
2023-05-19T11:08:52.916Z,2.38
2023-05-19T11:11:23.655Z,2.03
2023-05-19T11:13:56.881Z,2.15
2023-05-19T11:16:27.724Z,2.33
2023-05-19T11:19:02.890Z,2.08
2023-05-19T11:21:48.133Z,2.10
2023-05-19T11:24:39.101Z,2.33
2023-05-19T11:27:26.233Z,2.33
2023-05-19T11:29:57.390Z,2.42
2023-05-19T11:32:27.579Z,2.45
2023-05-19T11:34:57.989Z,1.98
2023-05-19T11:37:25.883Z,2.03
2023-05-19T11:39:52.943Z,2.47
2023-05-19T11:42:22.548Z,1.92
2023-05-19T11:44:58.034Z,2.90
2023-05-19T11:47:26.658Z,1.80
2023-05-19T11:49:56.381Z,1.98
2023-05-19T11:52:26.161Z,1.95
2023-05-19T11:57:19.957Z,2.10
2023-05-19T11:59:49.561Z,2.00
2023-05-19T12:02:18.857Z,1.85
2023-05-19T12:04:46.048Z,1.63
2023-05-19T12:07:13.038Z,2.35
2023-05-19T12:09:42.896Z,2.17
2023-05-19T12:12:09.693Z,2.03
2023-05-19T12:14:37.542Z,2.15
2023-05-19T12:17:10.987Z,2.20
2023-05-19T12:19:43.678Z,2.10
2023-05-19T12:22:10.884Z,2.15
2023-05-19T12:24:41.021Z,2.30
2023-05-19T12:27:13.250Z,1.63
2023-05-19T12:29:43.054Z,1.85
2023-05-19T12:32:10.171Z,2.10
2023-05-19T12:34:37.342Z,1.92
2023-05-19T12:37:06.209Z,2.10
2023-05-19T12:39:33.041Z,1.80
2023-05-19T12:42:03.199Z,2.15
2023-05-19T12:44:31.540Z,2.03
2023-05-19T12:47:00.950Z,2.03
2023-05-19T12:49:30.466Z,1.80
2023-05-19T12:51:57.194Z,1.75
2023-05-19T12:54:27.907Z,1.80
2023-05-19T12:56:57.469Z,1.80
2023-05-19T12:59:37.398Z,1.65
2023-05-19T13:02:10.347Z,1.63
2023-05-19T13:04:39.665Z,1.42
2023-05-19T13:07:06.198Z,1.95
2023-05-19T13:09:39.611Z,1.98
2023-05-19T13:12:06.498Z,2.38
2023-05-19T13:14:33.286Z,1.55
2023-05-19T13:16:59.945Z,2.15
2023-05-19T13:19:26.686Z,2.10
2023-05-19T13:21:53.614Z,1.50
2023-05-19T13:24:23.144Z,1.60
2023-05-19T13:26:51.646Z,1.50
2023-05-19T13:29:18.860Z,1.83
2023-05-19T13:31:48.500Z,1.85
2023-05-19T13:36:41.883Z,1.55
2023-05-19T13:39:26.348Z,1.80
2023-05-19T13:41:54.552Z,1.90
2023-05-19T13:44:23.068Z,1.73
2023-05-19T13:46:50.741Z,2.03
2023-05-19T13:49:23.820Z,1.70
2023-05-19T13:51:50.446Z,2.08
2023-05-19T13:54:17.811Z,1.92
2023-05-19T13:56:44.593Z,1.33
2023-05-19T13:59:12.468Z,2.20
2023-05-19T14:01:41.632Z,1.85
2023-05-19T14:04:08.321Z,1.70
2023-05-19T14:06:34.999Z,1.67
2023-05-19T14:09:04.295Z,2.30
2023-05-19T14:11:30.877Z,1.58
2023-05-19T14:13:57.817Z,2.28
2023-05-19T14:16:25.821Z,1.88
2023-05-19T14:18:55.277Z,2.00
2023-05-19T14:21:22.113Z,2.17
2023-05-19T14:23:50.817Z,2.30
2023-05-19T14:26:17.372Z,1.40
2023-05-19T14:28:43.954Z,1.80
2023-05-19T14:31:11.228Z,2.03
2023-05-19T14:33:40.381Z,1.77
2023-05-19T14:36:07.613Z,1.88
2023-05-19T14:38:34.269Z,1.23
2023-05-19T14:41:01.005Z,1.80
2023-05-19T14:43:34.583Z,2.10
2023-05-19T14:46:01.330Z,1.77
2023-05-19T14:48:35.200Z,1.45
2023-05-19T14:51:25.190Z,1.85
2023-05-19T14:53:52.094Z,1.52
2023-05-19T14:56:18.694Z,1.95
2023-05-19T14:58:47.714Z,1.90
2023-05-19T15:01:17.455Z,1.98
2023-05-19T15:06:12.330Z,2.10
2023-05-19T15:08:41.106Z,1.42
2023-05-19T15:11:07.725Z,2.10
2023-05-19T15:13:34.265Z,2.17
2023-05-19T15:16:16.097Z,1.48
2023-05-19T15:18:44.094Z,2.10
2023-05-19T15:21:12.272Z,1.73
2023-05-19T15:23:38.966Z,2.42
2023-05-19T15:26:05.692Z,1.70
2023-05-19T15:28:32.330Z,1.70
2023-05-19T15:30:58.894Z,1.75
2023-05-19T15:33:25.582Z,1.83
2023-05-19T15:35:52.167Z,2.10
2023-05-19T15:38:20.335Z,1.75
2023-05-19T15:40:47.001Z,1.42
2023-05-19T15:43:13.573Z,1.92
2023-05-19T15:45:40.071Z,2.30
2023-05-19T15:48:08.114Z,1.65
2023-05-19T15:50:38.923Z,1.95
2023-05-19T15:53:05.625Z,1.20
2023-05-19T15:55:33.495Z,1.98
2023-05-19T15:58:00.235Z,1.70
2023-05-19T16:00:26.811Z,2.10
2023-05-19T16:02:53.369Z,3.15
2023-05-19T16:05:20.335Z,5.93
2023-05-19T16:07:46.732Z,2.38
2023-05-19T16:10:13.333Z,1.85
2023-05-19T16:12:41.142Z,1.35
2023-05-19T16:15:13.057Z,2.03
2023-05-19T16:17:39.964Z,2.00
2023-05-19T16:20:07.653Z,2.28
2023-05-19T16:22:34.193Z,2.63
2023-05-19T16:25:00.682Z,5.38
2023-05-19T16:27:27.114Z,4.65
2023-05-19T16:29:54.975Z,5.65
2023-05-19T16:32:21.438Z,4.35
2023-05-19T16:34:47.933Z,3.40
2023-05-19T16:37:17.504Z,2.20
2023-05-19T16:39:44.343Z,2.85
2023-05-19T16:42:10.837Z,2.50
2023-05-19T16:44:37.308Z,2.72
2023-05-19T16:47:05.171Z,2.30
2023-05-19T16:49:31.756Z,1.92
2023-05-19T16:51:58.199Z,2.22
2023-05-19T16:54:24.821Z,2.38
2023-05-19T16:56:51.839Z,1.95
2023-05-19T16:59:20.584Z,1.98
2023-05-19T17:01:47.268Z,2.13
2023-05-19T17:04:15.074Z,2.85
2023-05-19T17:06:41.611Z,2.75
2023-05-19T17:09:08.221Z,2.35
2023-05-19T17:11:34.673Z,2.53
2023-05-19T17:14:01.345Z,2.35
2023-05-19T17:16:27.952Z,2.05
2023-05-19T17:18:57.149Z,2.20
2023-05-19T17:21:54.614Z,2.60
2023-05-19T17:24:23.285Z,2.65
2023-05-19T17:26:52.639Z,2.00
2023-05-19T17:29:19.165Z,2.28
2023-05-19T17:31:45.757Z,2.03
2023-05-19T17:34:12.280Z,2.38
2023-05-19T17:36:41.021Z,2.17
2023-05-19T17:39:07.506Z,2.05
2023-05-19T17:41:33.961Z,2.33
2023-05-19T17:44:02.982Z,2.33
2023-05-19T17:46:35.374Z,2.42
2023-05-19T17:49:04.570Z,2.05
2023-05-19T17:51:31.639Z,2.42
2023-05-19T17:54:00.326Z,2.50
2023-05-19T17:56:27.152Z,3.72
2023-05-19T17:59:01.510Z,2.38
2023-05-19T18:01:30.355Z,2.80
2023-05-19T18:03:57.547Z,2.80
2023-05-19T18:06:27.746Z,2.50
2023-05-19T18:08:57.820Z,2.50
2023-05-19T18:11:26.269Z,2.50
2023-05-19T18:13:52.809Z,3.00
2023-05-19T18:16:19.337Z,2.88
2023-05-19T18:18:45.952Z,2.50
2023-05-19T18:21:12.436Z,2.85
2023-05-19T18:23:38.863Z,2.92
2023-05-19T18:26:21.616Z,2.53
2023-05-19T18:28:52.252Z,2.75
2023-05-19T18:31:18.703Z,3.30
2023-05-19T18:33:45.948Z,2.55
2023-05-19T18:36:12.586Z,2.75
2023-05-19T18:38:39.208Z,2.40
2023-05-19T18:41:07.199Z,3.38
2023-05-19T18:43:38.307Z,2.75
2023-05-19T18:46:11.503Z,2.88
2023-05-19T18:48:38.200Z,3.63
2023-05-19T18:51:04.684Z,2.78
2023-05-19T18:53:33.007Z,3.40
2023-05-19T18:56:03.636Z,2.45
2023-05-19T18:58:33.292Z,3.03
2023-05-19T19:01:00.012Z,2.90
2023-05-19T19:03:27.962Z,2.72
2023-05-19T19:05:55.001Z,3.20
2023-05-19T19:08:24.491Z,3.20
2023-05-19T19:10:51.763Z,3.40
2023-05-19T19:13:21.633Z,3.00
2023-05-19T19:15:48.163Z,3.08
2023-05-19T19:18:14.741Z,2.70
2023-05-19T19:20:42.653Z,2.75
2023-05-19T19:23:12.230Z,3.08
2023-05-19T19:25:38.797Z,3.03
2023-05-19T19:28:05.292Z,3.60
2023-05-19T19:30:33.602Z,3.15
2023-05-19T19:33:00.437Z,3.20
2023-05-19T19:35:27.000Z,3.00
2023-05-19T19:38:00.241Z,3.15
2023-05-19T19:40:26.866Z,2.55
2023-05-19T19:43:02.526Z,2.60
2023-05-19T19:45:29.097Z,2.33
2023-05-19T19:47:55.741Z,3.10
2023-05-19T19:50:24.891Z,3.28
2023-05-19T19:52:55.179Z,2.88
2023-05-19T19:55:21.917Z,3.05
2023-05-19T19:57:48.567Z,2.78
2023-05-19T20:00:20.581Z,3.40
2023-05-19T20:03:03.521Z,3.25
2023-05-19T20:05:31.387Z,3.30
2023-05-19T20:07:59.456Z,3.58
2023-05-19T20:10:27.849Z,3.30
2023-05-19T20:12:57.004Z,3.10
2023-05-19T20:15:23.513Z,3.08
2023-05-19T20:17:50.402Z,3.75
2023-05-19T20:20:17.957Z,3.38
2023-05-19T20:22:44.535Z,3.08
2023-05-19T20:25:12.472Z,3.50
2023-05-19T20:27:39.082Z,3.47
2023-05-19T20:30:06.962Z,3.40
2023-05-19T20:32:33.782Z,3.38
2023-05-19T20:35:00.521Z,3.55
2023-05-19T20:37:27.095Z,3.33
2023-05-19T20:39:53.969Z,5.18
2023-05-19T20:42:23.569Z,3.53
2023-05-19T20:44:52.624Z,3.25
2023-05-19T20:47:19.508Z,3.40
2023-05-19T20:49:46.200Z,3.60
2023-05-19T20:52:20.829Z,3.17
2023-05-19T20:54:47.644Z,3.45
2023-05-19T20:57:14.403Z,3.30
2023-05-19T20:59:42.663Z,3.20
2023-05-19T21:02:12.514Z,3.45
2023-05-19T21:04:41.204Z,3.10
2023-05-19T21:07:09.708Z,3.70
2023-05-19T21:09:36.451Z,4.05
2023-05-19T21:12:06.362Z,3.08
2023-05-19T21:14:33.322Z,3.90
2023-05-19T21:17:01.271Z,4.22
2023-05-19T21:19:28.104Z,4.30
2023-05-19T21:22:02.236Z,3.90
2023-05-19T21:24:28.858Z,4.55
2023-05-19T21:26:57.531Z,3.20
2023-05-19T21:29:24.146Z,3.63
2023-05-19T21:31:50.806Z,4.50
2023-05-19T21:34:19.137Z,4.07
2023-05-19T21:36:47.171Z,3.80
2023-05-19T21:39:14.812Z,4.03
2023-05-19T21:41:52.518Z,4.28
2023-05-19T21:44:21.740Z,3.97
2023-05-19T21:46:48.493Z,3.95
2023-05-19T21:49:17.167Z,3.90
2023-05-19T21:51:45.367Z,3.75
2023-05-19T21:54:12.304Z,3.60
2023-05-19T21:56:39.103Z,4.18
2023-05-19T21:59:09.112Z,3.88
2023-05-19T22:01:39.896Z,4.68
2023-05-19T22:04:06.698Z,4.63
2023-05-19T22:06:35.945Z,4.28
2023-05-19T22:09:06.686Z,5.45
2023-05-19T22:11:35.706Z,4.95
2023-05-19T22:14:04.130Z,5.63
2023-05-19T22:16:30.879Z,4.63
2023-05-19T22:18:57.822Z,4.85
2023-05-19T22:21:35.817Z,5.15
2023-05-19T22:24:07.017Z,4.68
2023-05-19T22:26:36.740Z,4.70
2023-05-19T22:29:03.501Z,5.65
2023-05-19T22:31:30.084Z,5.43
2023-05-19T22:33:58.446Z,4.38
2023-05-19T22:36:31.744Z,5.40
2023-05-19T22:39:05.847Z,5.07
2023-05-19T22:41:36.006Z,5.18
2023-05-19T22:46:32.789Z,4.75
2023-05-19T22:49:01.647Z,6.05
2023-05-19T22:51:29.718Z,5.40
2023-05-19T22:53:58.327Z,5.55
2023-05-19T22:56:27.799Z,5.45
2023-05-19T22:58:56.725Z,5.25
2023-05-19T23:01:23.432Z,4.53
2023-05-19T23:03:51.555Z,5.43
2023-05-19T23:06:18.358Z,5.10
2023-05-19T23:08:46.152Z,6.10
2023-05-19T23:11:16.472Z,5.63
2023-05-19T23:13:44.913Z,4.65
2023-05-19T23:16:14.813Z,5.72
2023-05-19T23:18:43.595Z,5.60
2023-05-19T23:21:10.606Z,5.55
2023-05-19T23:23:38.809Z,5.25
2023-05-19T23:26:07.333Z,4.88
2023-05-19T23:28:36.871Z,5.63
2023-05-19T23:31:10.816Z,6.05
2023-05-19T23:33:37.775Z,5.60
2023-05-19T23:36:09.570Z,5.97
2023-05-19T23:38:39.150Z,5.20
2023-05-19T23:41:36.262Z,5.68
2023-05-19T23:44:05.384Z,5.85
2023-05-19T23:46:33.476Z,5.65
2023-05-19T23:49:00.221Z,5.53
2023-05-19T23:51:26.742Z,6.68
2023-05-19T23:54:00.253Z,5.80
2023-05-19T23:56:26.871Z,5.53
2023-05-19T23:58:53.493Z,5.60
